Mostar, Bosnia and Herzegovina
Current Conditions -  °F | °C
As of 9:00 PM on Thursday 27 Nov 2014 (Local Time) from LQMO Reporting Station
Overcast Overcast  
Wind Chill: 50°   Ceiling: 5600
Heat Index: 50°   Visibility: 5mi
Dew Point: 46°   Wind: 1mph
Humidity: 87%   Direction: NA
Pressure: 30"   Gusts: NA
Location:  43.34°N, 17.81°E
Report Text: LQMO 271900Z VRB01KT 8000 SCT039 BKN056 OVC082 10/08 Q1016
Loading
Personal Weather Stations






























Interactive Weather Map New forecast layout! Learn more

10-Day Weather Forecast

Advertisements
Track Severe Weather on mobile